aviador You're here:

KMCX Decoded Metar

in
Report Time2017-12-16 18:35:00
UTC Time2017-12-16 18:44:00
Flight Rules vfr VFR
Wind220° at 14 Gusting to 20 kt
W.Decomp.*RWY 18: 10.7 kt HW 9.0 kt RCW
W.Rank220° ranks 5
Current wind is above 220° avg. (8.7)
Visibility9999 m
Phenomena:N/A
Clouds:N/A
Expected CloudBase > 4,400 ft AGL from Temp-Dew spread
CeilingNone
Temp08°C
Dew Point-3°C (46% RH)
AAT0.6°C
QNH1014 hPa
Raw Report
METAR KMCX 161835Z AUTO 22014G20KT 10SM CLR 08/M03 A2993 RMK AO2 T00841035=

Extra information for KMCX:More info

Social comments